Time;durP1;ratioP1;P1;durP2;ratioP2;P2;SDS_P1;SDS_P2;PMS_P1;PMS_P2;Temp;Humidity;BMP_temperature;BMP_pressure;BME280_temperature;BME280_humidity;BME280_pressure;Samples;Min_cycle;Max_cycle;Signal;HPM_P1;HPM_P2
2022/12/06 00:01:33;;;;;;;182.52;34.80;;;1.10;99.90;;;;;;5039867;28;19921;-72
2022/12/06 00:04:05;;;;;;;186.60;34.22;;;1.10;99.90;;;;;;5036406;28;20168;-72
2022/12/06 00:06:32;;;;;;;216.10;36.67;;;1.00;99.90;;;;;;5038024;28;20041;-72
2022/12/06 00:08:59;;;;;;;132.63;32.50;;;0.90;99.90;;;;;;5037599;28;20116;-72
2022/12/06 00:11:27;;;;;;;250.77;39.40;;;0.90;99.90;;;;;;5038282;28;20044;-72
2022/12/06 00:13:55;;;;;;;155.80;34.03;;;0.90;99.90;;;;;;5036670;28;20545;-72
2022/12/06 00:16:21;;;;;;;186.90;37.28;;;1.00;99.90;;;;;;5041952;28;20033;-72
2022/12/06 00:18:47;;;;;;;159.27;35.05;;;1.10;99.90;;;;;;5039427;28;20025;-72
2022/12/06 00:21:19;;;;;;;174.35;35.55;;;1.20;99.90;;;;;;5038295;28;20033;-72
2022/12/06 00:23:47;;;;;;;194.25;37.05;;;1.10;99.90;;;;;;5035854;28;20387;-72
2022/12/06 00:26:14;;;;;;;156.45;31.98;;;1.00;99.90;;;;;;5038749;28;20049;-72
2022/12/06 00:28:40;;;;;;;241.93;38.95;;;0.90;99.90;;;;;;5030707;28;20022;-72
2022/12/06 00:31:08;;;;;;;210.57;35.95;;;1.00;99.90;;;;;;5039556;28;20045;-73
2022/12/06 00:33:36;;;;;;;152.00;30.45;;;1.00;99.90;;;;;;5036269;28;20704;-72
2022/12/06 00:36:04;;;;;;;250.73;35.47;;;0.90;99.90;;;;;;5033382;28;20040;-72
2022/12/06 00:38:30;;;;;;;219.02;39.80;;;1.00;99.90;;;;;;5045054;28;20032;-72
2022/12/06 00:41:07;;;;;;;153.70;34.60;;;1.20;99.90;;;;;;5036662;28;20445;-72
2022/12/06 00:43:33;;;;;;;99.05;33.60;;;1.30;99.90;;;;;;5033500;28;20033;-72
2022/12/06 00:46:00;;;;;;;192.52;36.75;;;1.30;99.90;;;;;;5034265;28;20026;-72
2022/12/06 00:48:26;;;;;;;119.03;30.33;;;1.40;99.90;;;;;;5045936;28;20040;-73
2022/12/06 00:50:52;;;;;;;175.38;31.05;;;1.30;99.90;;;;;;5037232;28;20528;-72
2022/12/06 00:53:17;;;;;;;184.30;35.70;;;1.00;99.90;;;;;;5040380;28;20033;-72
2022/12/06 00:55:43;;;;;;;119.82;32.40;;;1.10;99.90;;;;;;5038555;28;20025;-72
2022/12/06 00:58:10;;;;;;;209.55;35.13;;;1.10;99.90;;;;;;5039707;28;20119;-72
2022/12/06 01:00:35;;;;;;;130.88;30.52;;;1.20;99.90;;;;;;5040030;28;20029;-72
2022/12/06 01:03:01;;;;;;;166.55;30.23;;;1.30;99.90;;;;;;5040612;28;20485;-72
2022/12/06 01:05:27;;;;;;;129.07;34.22;;;0.90;99.70;;;;;;5029703;28;20036;-72
2022/12/06 01:07:53;;;;;;;150.15;36.55;;;1.00;99.90;;;;;;5037424;28;20039;-72
2022/12/06 01:10:19;;;;;;;173.02;36.78;;;1.20;99.90;;;;;;5039278;28;20041;-72
2022/12/06 01:12:44;;;;;;;140.88;34.28;;;1.30;99.90;;;;;;5035708;28;20018;-72
2022/12/06 01:15:10;;;;;;;136.40;36.23;;;1.40;99.90;;;;;;5042495;28;20041;-72
2022/12/06 01:17:36;;;;;;;111.20;32.10;;;1.40;99.90;;;;;;5041334;28;20023;-72
2022/12/06 01:20:03;;;;;;;100.57;29.05;;;1.40;99.60;;;;;;5035653;28;20049;-73
2022/12/06 01:22:28;;;;;;;147.02;32.40;;;1.20;98.80;;;;;;5034423;28;20028;-72
2022/12/06 01:24:54;;;;;;;169.73;36.83;;;1.30;98.90;;;;;;5041459;28;20373;-73
2022/12/06 01:27:20;;;;;;;164.20;36.33;;;1.30;98.70;;;;;;5040321;28;20037;-72
2022/12/06 01:29:45;;;;;;;163.00;30.55;;;1.40;98.30;;;;;;5040614;28;20025;-72
2022/12/06 01:32:11;;;;;;;152.50;29.13;;;1.20;98.30;;;;;;5035827;28;20038;-72
2022/12/06 01:34:37;;;;;;;123.55;28.20;;;1.40;99.40;;;;;;5039915;28;20097;-72
2022/12/06 01:37:03;;;;;;;96.07;25.65;;;1.40;99.30;;;;;;5035060;28;20030;-71
2022/12/06 01:39:29;;;;;;;85.22;26.80;;;1.10;98.30;;;;;;5038070;28;20370;-72
2022/12/06 01:41:55;;;;;;;79.65;25.83;;;1.10;98.20;;;;;;5037206;28;20040;-72
2022/12/06 01:44:40;;;;;;;102.82;28.17;;;1.10;97.20;;;;;;5031330;28;20028;-72
2022/12/06 01:47:27;;;;;;;137.40;28.00;;;1.10;97.80;;;;;;5038675;28;20524;-72
2022/12/06 01:50:00;;;;;;;103.23;27.83;;;1.20;97.80;;;;;;5029581;28;20033;-72
2022/12/06 01:52:47;;;;;;;106.85;27.02;;;1.10;97.60;;;;;;5032541;28;20280;-72
2022/12/06 01:55:14;;;;;;;96.55;26.48;;;1.10;97.50;;;;;;5032372;28;20074;-72
2022/12/06 01:57:39;;;;;;;148.05;28.95;;;1.10;97.50;;;;;;5042574;28;20039;-72
2022/12/06 02:00:06;;;;;;;82.15;23.67;;;0.90;97.30;;;;;;5035962;28;20030;-72
2022/12/06 02:02:31;;;;;;;;;;;0.70;97.60;;;;;;5038757;28;20061;-72
2022/12/06 02:04:59;;;;;;;192.95;31.35;;;0.90;98.40;;;;;;5034245;28;19944;-72
2022/12/06 02:07:26;;;;;;;129.10;27.58;;;1.00;98.00;;;;;;5030474;28;20473;-72
2022/12/06 02:09:53;;;;;;;132.57;26.48;;;0.90;98.40;;;;;;5037712;28;20431;-72
2022/12/06 02:12:19;;;;;;;96.18;25.70;;;0.70;98.50;;;;;;5037562;28;20036;-72
2022/12/06 02:14:49;;;;;;;120.97;26.60;;;0.80;99.30;;;;;;5038953;28;20029;-72
2022/12/06 02:17:24;;;;;;;120.43;24.38;;;0.90;99.10;;;;;;5037311;28;20041;-72
2022/12/06 02:19:58;;;;;;;116.28;27.00;;;0.80;98.60;;;;;;5038354;28;20107;-72
2022/12/06 02:22:38;;;;;;;130.93;25.90;;;0.80;99.30;;;;;;5037841;28;20036;-72
2022/12/06 02:25:27;;;;;;;85.70;27.08;;;0.80;98.70;;;;;;5031105;28;20088;-72
2022/12/06 02:28:20;;;;;;;113.30;27.23;;;1.10;99.20;;;;;;5033928;28;20028;-72
2022/12/06 02:31:03;;;;;;;91.30;26.77;;;1.10;98.80;;;;;;5036229;28;20068;-72
2022/12/06 02:33:47;;;;;;;142.57;29.05;;;1.20;98.90;;;;;;5034333;28;20017;-72
2022/12/06 02:36:26;;;;;;;121.85;27.63;;;1.30;98.30;;;;;;5033821;28;20034;-72
2022/12/06 02:39:14;;;;;;;97.63;26.48;;;1.20;98.20;;;;;;5041008;28;20060;-73
2022/12/06 02:41:49;;;;;;;82.13;24.75;;;1.20;98.10;;;;;;5028798;28;20174;-72
2022/12/06 02:44:22;;;;;;;69.47;24.20;;;1.20;97.60;;;;;;5040253;28;20036;-72
2022/12/06 02:46:50;;;;;;;87.80;26.67;;;1.20;97.20;;;;;;5033624;28;20029;-72
2022/12/06 02:49:17;;;;;;;73.85;25.20;;;1.10;97.90;;;;;;5038594;28;20036;-72
2022/12/06 02:51:46;;;;;;;88.53;23.90;;;1.30;97.40;;;;;;5031382;28;20048;-72
2022/12/06 02:54:12;;;;;;;127.65;27.35;;;1.20;98.10;;;;;;5034619;28;20505;-73
2022/12/06 02:56:38;;;;;;;;;;;1.30;98.40;;;;;;5035698;28;20021;-72
2022/12/06 02:59:04;;;;;;;127.22;27.50;;;1.40;98.10;;;;;;5035221;28;19932;-72
2022/12/06 03:01:31;;;;;;;;;;;1.50;98.00;;;;;;5041511;28;20029;-73
2022/12/06 03:04:11;;;;;;;66.13;23.35;;;1.50;97.70;;;;;;5038748;28;20009;-73
2022/12/06 03:06:41;;;;;;;313.85;40.03;;;1.50;97.50;;;;;;5027259;28;20041;-72
2022/12/06 03:09:22;;;;;;;119.97;29.13;;;1.50;97.90;;;;;;5023331;28;20031;-73
2022/12/06 03:11:54;;;;;;;203.30;35.78;;;1.70;98.10;;;;;;5036476;28;20112;-73
2022/12/06 03:14:23;;;;;;;95.07;27.60;;;1.70;97.70;;;;;;5036937;28;20416;-72
2022/12/06 03:17:03;;;;;;;100.88;27.65;;;1.80;97.50;;;;;;5038031;28;20025;-73
2022/12/06 03:19:32;;;;;;;132.60;28.90;;;1.80;97.10;;;;;;5041320;28;20021;-73
2022/12/06 03:22:06;;;;;;;110.10;29.20;;;1.80;97.10;;;;;;5034871;28;20041;-72
2022/12/06 03:24:36;;;;;;;109.53;30.48;;;1.90;96.70;;;;;;5037767;28;20024;-72
2022/12/06 03:27:08;;;;;;;97.72;32.15;;;1.90;96.50;;;;;;5046423;28;20045;-73
2022/12/06 03:29:39;;;;;;;93.57;28.60;;;1.90;96.10;;;;;;5039772;28;20104;-73
2022/12/06 03:32:07;;;;;;;121.05;31.73;;;1.90;96.50;;;;;;5036908;28;20761;-73
2022/12/06 03:34:39;;;;;;;86.13;29.33;;;1.70;96.70;;;;;;5038240;28;20020;-73
2022/12/06 03:37:08;;;;;;;99.28;27.98;;;1.80;96.50;;;;;;5040451;28;20104;-73
2022/12/06 03:39:43;;;;;;;89.45;28.58;;;1.80;96.60;;;;;;5035405;28;20040;-72
2022/12/06 03:42:09;;;;;;;77.03;28.60;;;1.80;96.70;;;;;;5035000;28;20539;-72
2022/12/06 03:44:35;;;;;;;114.82;31.80;;;1.90;96.40;;;;;;5037852;28;20481;-73
2022/12/06 03:47:14;;;;;;;89.68;29.52;;;2.00;96.50;;;;;;5039603;28;20045;-72
2022/12/06 03:49:43;;;;;;;86.18;28.80;;;2.00;96.70;;;;;;5039373;28;20044;-72
2022/12/06 03:52:09;;;;;;;119.13;31.90;;;2.00;96.50;;;;;;5034056;28;20025;-72
2022/12/06 03:54:38;;;;;;;105.55;29.15;;;2.10;96.40;;;;;;5043102;28;20040;-72
2022/12/06 03:57:03;;;;;;;142.40;34.20;;;2.10;96.90;;;;;;5035937;28;20068;-72
2022/12/06 03:59:29;;;;;;;134.53;34.43;;;2.10;96.40;;;;;;5038962;28;20029;-73
2022/12/06 04:01:54;;;;;;;96.37;30.97;;;2.20;96.50;;;;;;5033833;28;20374;-73
2022/12/06 04:04:20;;;;;;;123.87;33.23;;;2.10;96.80;;;;;;5042065;28;20036;-72
2022/12/06 04:06:45;;;;;;;125.80;33.13;;;2.00;96.90;;;;;;5038771;28;20021;-72
2022/12/06 04:11:55;;;;;;;168.80;36.80;;;2.10;97.10;;;;;;5034179;28;20855;-73
2022/12/06 04:14:21;;;;;;;133.77;35.60;;;2.10;97.80;;;;;;5037717;28;20022;-72
2022/12/06 04:19:30;;;;;;;154.00;37.50;;;2.10;97.50;;;;;;5041207;28;20647;-72
2022/12/06 04:24:40;;;;;;;162.80;38.40;;;2.20;97.40;;;;;;5032589;28;20064;-72
2022/12/06 04:40:47;;;;;;;171.77;40.17;;;2.20;98.50;;;;;;5039043;28;20036;-73
2022/12/06 04:45:57;;;;;;;159.32;37.53;;;2.20;98.00;;;;;;5037004;28;20052;-73
2022/12/06 04:48:22;;;;;;;203.93;38.93;;;2.20;97.70;;;;;;5039363;28;20484;-73
2022/12/06 04:50:49;;;;;;;141.03;33.97;;;2.30;97.80;;;;;;5037383;28;20037;-73
2022/12/06 04:53:16;;;;;;;166.98;37.25;;;2.30;97.60;;;;;;5037764;28;20805;-73
2022/12/06 04:55:45;;;;;;;;;;;2.30;97.80;;;;;;5038517;28;20036;-73
2022/12/06 04:58:11;;;;;;;166.95;36.65;;;2.30;97.90;;;;;;5037782;28;20376;-72
2022/12/06 05:00:36;;;;;;;177.18;35.67;;;2.30;97.80;;;;;;5039914;28;20037;-73
2022/12/06 05:03:02;;;;;;;174.30;40.10;;;2.30;97.70;;;;;;5036046;28;20021;-73
2022/12/06 05:05:27;;;;;;;162.97;36.67;;;2.30;97.40;;;;;;5037630;28;20561;-74
2022/12/06 05:07:53;;;;;;;191.43;33.83;;;2.30;97.80;;;;;;5039797;28;20040;-73
2022/12/06 05:10:19;;;;;;;261.83;38.00;;;2.20;98.10;;;;;;5038610;28;20035;-73
2022/12/06 05:12:44;;;;;;;155.65;31.08;;;2.20;98.20;;;;;;5035065;28;20029;-73
2022/12/06 05:15:10;;;;;;;179.13;34.73;;;2.30;98.00;;;;;;5044222;28;20040;-73
2022/12/06 05:17:35;;;;;;;169.32;34.75;;;2.30;98.10;;;;;;5041201;28;20029;-73
2022/12/06 05:20:01;;;;;;;168.60;34.03;;;2.20;98.50;;;;;;5034647;28;20034;-73
2022/12/06 05:22:32;;;;;;;124.27;28.37;;;2.30;98.70;;;;;;5036045;28;20476;-74
2022/12/06 05:24:57;;;;;;;118.13;30.00;;;2.20;98.40;;;;;;5041937;28;20787;-73
2022/12/06 05:27:23;;;;;;;166.73;31.97;;;2.20;98.90;;;;;;5040177;28;20071;-73
2022/12/06 05:29:49;;;;;;;199.50;36.90;;;2.20;99.20;;;;;;5038655;28;20850;-73
2022/12/06 05:32:14;;;;;;;177.33;31.50;;;2.20;99.40;;;;;;5033334;28;20296;-73
2022/12/06 05:34:40;;;;;;;229.73;38.30;;;2.30;99.20;;;;;;5031306;28;20108;-73
2022/12/06 05:37:05;;;;;;;268.00;41.07;;;2.30;99.20;;;;;;5039875;28;20035;-73
2022/12/06 05:39:31;;;;;;;187.60;40.73;;;2.20;99.00;;;;;;5040562;28;20025;-73
2022/12/06 05:41:57;;;;;;;224.57;40.13;;;2.30;99.30;;;;;;5034207;28;20284;-73
2022/12/06 05:44:22;;;;;;;155.50;33.67;;;2.30;99.10;;;;;;5037119;28;20632;-73
2022/12/06 05:46:48;;;;;;;170.57;33.17;;;2.30;99.10;;;;;;5030502;28;20045;-73
2022/12/06 05:49:13;;;;;;;213.60;37.03;;;2.30;99.40;;;;;;5041786;28;20020;-73
2022/12/06 05:51:39;;;;;;;212.37;38.00;;;2.30;98.80;;;;;;5036364;28;20033;-73
2022/12/06 05:54:05;;;;;;;176.15;33.50;;;2.30;99.00;;;;;;5038023;28;20021;-73
2022/12/06 05:56:31;;;;;;;137.85;29.95;;;2.30;98.50;;;;;;5044671;28;20029;-73
2022/12/06 05:58:57;;;;;;;119.03;29.80;;;2.30;98.40;;;;;;5035807;28;20029;-73
2022/12/06 06:01:23;;;;;;;184.00;33.73;;;2.40;98.60;;;;;;5040402;28;20405;-73
2022/12/06 06:03:48;;;;;;;131.40;30.13;;;2.30;99.00;;;;;;5046170;28;20278;-72
2022/12/06 06:06:15;;;;;;;156.50;36.50;;;2.40;99.30;;;;;;5034304;28;20029;-72
2022/12/06 06:08:40;;;;;;;;;;;2.30;98.90;;;;;;5040493;28;20036;-72
2022/12/06 06:11:06;;;;;;;133.32;30.77;;;2.30;98.80;;;;;;5033796;28;19917;-73
2022/12/06 06:13:31;;;;;;;165.73;38.50;;;2.40;98.90;;;;;;5037392;28;20044;-73
2022/12/06 06:15:57;;;;;;;117.70;32.20;;;2.40;98.50;;;;;;5039266;28;20490;-73
2022/12/06 06:18:22;;;;;;;116.23;33.23;;;2.40;98.30;;;;;;5035620;28;20045;-72
2022/12/06 06:20:53;;;;;;;115.23;31.03;;;2.40;98.20;;;;;;5034926;28;20272;-73
2022/12/06 06:23:20;;;;;;;144.52;36.00;;;2.40;98.30;;;;;;5036031;28;20272;-72
2022/12/06 06:25:46;;;;;;;132.93;35.13;;;2.40;98.30;;;;;;5037478;28;20362;-73
2022/12/06 06:28:12;;;;;;;123.95;32.97;;;2.40;98.00;;;;;;5035848;28;20032;-73
2022/12/06 06:30:38;;;;;;;90.75;31.05;;;2.30;98.50;;;;;;5039793;28;20041;-72
2022/12/06 06:33:03;;;;;;;122.95;35.15;;;2.30;98.40;;;;;;5041382;28;20032;-72
2022/12/06 06:35:29;;;;;;;136.90;40.72;;;2.30;98.30;;;;;;5039417;28;20034;-72
2022/12/06 06:37:55;;;;;;;116.32;37.25;;;2.40;98.00;;;;;;5040066;28;20036;-72
2022/12/06 06:40:21;;;;;;;86.60;29.13;;;2.30;97.70;;;;;;5039922;28;20653;-73
2022/12/06 06:42:47;;;;;;;102.32;29.95;;;2.40;97.40;;;;;;5032860;28;20017;-73
2022/12/06 06:45:13;;;;;;;102.65;33.67;;;2.40;97.50;;;;;;5037563;28;20037;-73
2022/12/06 06:47:38;;;;;;;91.10;24.77;;;2.30;97.30;;;;;;5036794;28;20459;-73
2022/12/06 06:50:05;;;;;;;91.53;31.15;;;2.40;97.20;;;;;;5039501;28;20036;-72
2022/12/06 06:52:31;;;;;;;88.15;27.13;;;2.40;97.40;;;;;;5039750;28;20036;-72
2022/12/06 06:54:57;;;;;;;126.78;38.83;;;2.40;97.40;;;;;;5037790;28;20109;-72
2022/12/06 06:57:23;;;;;;;87.22;25.50;;;2.40;97.20;;;;;;5045555;28;20115;-72
2022/12/06 06:59:49;;;;;;;79.38;26.42;;;2.30;97.20;;;;;;5038932;28;20029;-72
2022/12/06 07:02:16;;;;;;;89.72;27.20;;;2.30;97.20;;;;;;5039285;28;20083;-72
2022/12/06 07:04:42;;;;;;;83.65;26.73;;;2.30;97.30;;;;;;5045982;28;20075;-72
2022/12/06 07:07:08;;;;;;;77.75;24.20;;;2.30;97.00;;;;;;5035869;28;20142;-72
2022/12/06 07:09:33;;;;;;;72.33;28.57;;;2.20;96.80;;;;;;5045035;28;20025;-73
2022/12/06 07:11:59;;;;;;;60.28;22.42;;;2.30;96.90;;;;;;5043147;28;20029;-72
2022/12/06 07:14:25;;;;;;;77.90;25.35;;;2.30;96.90;;;;;;5040775;28;20021;-72
2022/12/06 07:16:50;;;;;;;87.95;27.73;;;2.30;97.20;;;;;;5035456;28;20021;-72
2022/12/06 07:19:16;;;;;;;80.07;26.97;;;2.30;96.60;;;;;;5041376;28;20029;-72
2022/12/06 07:21:42;;;;;;;75.20;25.60;;;2.40;96.30;;;;;;5034784;28;20029;-73
2022/12/06 07:24:08;;;;;;;94.53;26.50;;;2.40;96.10;;;;;;5032425;28;20036;-74
2022/12/06 07:26:34;;;;;;;87.68;29.73;;;2.30;96.30;;;;;;5034510;28;20026;-72
2022/12/06 07:29:00;;;;;;;94.82;29.75;;;2.40;96.30;;;;;;5033485;28;20059;-72
2022/12/06 07:31:28;;;;;;;91.60;27.50;;;2.40;96.20;;;;;;5032871;28;20122;-72
2022/12/06 07:33:58;;;;;;;80.15;26.67;;;2.40;96.20;;;;;;5028320;28;20813;-72
2022/12/06 07:36:26;;;;;;;84.65;27.85;;;2.40;96.30;;;;;;5032412;28;20075;-73
2022/12/06 07:38:54;;;;;;;94.38;27.33;;;2.50;96.30;;;;;;5027344;28;20026;-73
2022/12/06 07:46:49;;;;;;;80.45;24.95;;;2.60;96.40;;;;;;5033739;28;20036;-72
2022/12/06 07:49:17;;;;;;;77.53;25.67;;;2.60;95.90;;;;;;5040048;28;20025;-71
2022/12/06 07:51:45;;;;;;;92.32;25.20;;;2.60;95.80;;;;;;5029911;28;20080;-73
2022/12/06 07:54:12;;;;;;;92.15;28.35;;;2.70;95.70;;;;;;5042714;28;20036;-71
2022/12/06 07:56:39;;;;;;;113.70;30.90;;;2.70;95.60;;;;;;5039675;28;20009;-72
2022/12/06 07:59:04;;;;;;;104.20;32.08;;;2.70;95.80;;;;;;5036308;28;20437;-73
2022/12/06 08:01:30;;;;;;;94.87;28.70;;;2.70;96.10;;;;;;5030053;28;20021;-73
2022/12/06 08:03:59;;;;;;;99.53;29.02;;;2.70;95.90;;;;;;5042661;28;20021;-71
2022/12/06 08:06:24;;;;;;;89.13;26.73;;;2.80;95.70;;;;;;5040045;28;20033;-71
2022/12/06 08:08:50;;;;;;;83.93;27.00;;;2.80;95.60;;;;;;5038816;28;20098;-71
2022/12/06 08:11:15;;;;;;;90.10;27.13;;;2.80;95.30;;;;;;5040624;28;20045;-72
2022/12/06 08:13:41;;;;;;;90.35;27.25;;;2.80;95.50;;;;;;5037023;28;20102;-71
2022/12/06 08:16:11;;;;;;;78.40;25.63;;;2.80;95.20;;;;;;5039583;28;20038;-71
2022/12/06 08:18:38;;;;;;;98.13;27.02;;;2.80;95.20;;;;;;5041130;28;20028;-72
2022/12/06 08:21:04;;;;;;;91.25;27.65;;;2.90;95.40;;;;;;5034211;28;20025;-72
2022/12/06 08:23:29;;;;;;;89.18;26.45;;;2.90;95.30;;;;;;5035377;28;20102;-72
2022/12/06 08:26:01;;;;;;;94.47;27.93;;;2.90;95.20;;;;;;5026227;28;20454;-72
2022/12/06 08:28:28;;;;;;;87.90;27.05;;;3.00;95.10;;;;;;5032383;28;20303;-71
2022/12/06 08:30:54;;;;;;;83.32;26.77;;;3.00;95.10;;;;;;5034913;28;20047;-71
2022/12/06 08:33:20;;;;;;;84.43;27.02;;;3.00;94.80;;;;;;5039067;28;20025;-71
2022/12/06 08:35:47;;;;;;;93.68;28.77;;;3.00;94.90;;;;;;5034035;28;20078;-71
2022/12/06 08:38:13;;;;;;;94.55;28.45;;;3.10;94.60;;;;;;5037354;28;20040;-70
2022/12/06 08:40:39;;;;;;;102.60;29.73;;;3.10;94.80;;;;;;5039498;28;20036;-71
2022/12/06 08:43:05;;;;;;;82.27;27.97;;;3.10;95.00;;;;;;5038317;28;20412;-70
2022/12/06 08:45:30;;;;;;;79.28;26.77;;;3.10;94.80;;;;;;5028416;28;20028;-72
2022/12/06 08:47:56;;;;;;;91.20;30.10;;;3.20;94.70;;;;;;5038178;28;20037;-70
2022/12/06 08:50:21;;;;;;;89.87;27.70;;;3.20;94.90;;;;;;5036597;28;20033;-71
2022/12/06 08:52:47;;;;;;;90.47;30.07;;;3.20;94.80;;;;;;5034760;28;20022;-71
2022/12/06 08:55:13;;;;;;;84.38;29.17;;;3.20;94.90;;;;;;5036936;28;20029;-71
2022/12/06 08:57:38;;;;;;;83.53;28.17;;;3.20;94.60;;;;;;5041264;28;20029;-70
2022/12/06 09:00:06;;;;;;;92.03;33.33;;;3.20;94.70;;;;;;5037284;28;20034;-70
2022/12/06 09:02:31;;;;;;;81.40;27.80;;;3.20;94.70;;;;;;5043827;28;20029;-71
2022/12/06 09:04:57;;;;;;;88.37;28.13;;;3.20;94.60;;;;;;5035677;28;20040;-69
2022/12/06 09:07:25;;;;;;;85.57;30.73;;;3.30;94.70;;;;;;5040654;28;20109;-68
2022/12/06 09:09:52;;;;;;;87.38;29.08;;;3.40;94.50;;;;;;5044170;28;20017;-69
2022/12/06 09:12:18;;;;;;;92.00;29.73;;;3.40;94.70;;;;;;5038920;28;20037;-70
2022/12/06 09:14:44;;;;;;;88.33;29.87;;;3.40;94.70;;;;;;5038410;28;20070;-71
2022/12/06 09:17:09;;;;;;;79.63;28.02;;;3.40;94.60;;;;;;5036227;28;20111;-72
2022/12/06 09:19:35;;;;;;;87.23;26.13;;;3.40;94.40;;;;;;5039272;28;20025;-71
2022/12/06 09:22:01;;;;;;;72.40;24.15;;;3.40;94.40;;;;;;5031576;28;20847;-71
2022/12/06 09:24:26;;;;;;;84.22;26.95;;;3.50;94.20;;;;;;5036668;28;20025;-71
2022/12/06 09:26:52;;;;;;;77.90;25.63;;;3.50;94.30;;;;;;5034526;28;20033;-71
2022/12/06 09:29:18;;;;;;;74.97;25.20;;;3.50;94.00;;;;;;5030903;28;20049;-71
2022/12/06 09:31:43;;;;;;;81.07;29.50;;;3.50;94.30;;;;;;5044310;28;20341;-71
2022/12/06 09:34:11;;;;;;;81.90;28.30;;;3.50;94.00;;;;;;5041095;28;20469;-71
2022/12/06 09:36:48;;;;;;;70.57;24.27;;;3.60;94.40;;;;;;5030659;28;20029;-71
2022/12/06 09:39:16;;;;;;;89.13;31.17;;;3.60;93.40;;;;;;5039670;28;20021;-72
2022/12/06 09:42:06;;;;;;;69.95;26.58;;;3.60;93.80;;;;;;5039025;28;20033;-72
2022/12/06 09:44:43;;;;;;;67.60;25.55;;;3.50;92.90;;;;;;5029994;28;20107;-71
2022/12/06 09:47:39;;;;;;;61.28;24.55;;;3.60;93.80;;;;;;5044027;28;20421;-72
2022/12/06 09:50:31;;;;;;;64.07;23.95;;;3.70;93.30;;;;;;5035328;28;20120;-70
2022/12/06 09:53:06;;;;;;;62.42;25.13;;;3.80;93.40;;;;;;5035072;28;20047;-71
2022/12/06 09:55:46;;;;;;;68.35;26.30;;;3.80;93.10;;;;;;5041458;28;20052;-72
2022/12/06 09:58:39;;;;;;;71.35;25.15;;;3.80;93.40;;;;;;5036537;28;20041;-71
2022/12/06 10:01:13;;;;;;;64.88;24.20;;;3.80;93.50;;;;;;5030078;28;20029;-72
2022/12/06 10:04:05;;;;;;;84.40;27.58;;;3.80;93.20;;;;;;5043489;28;20510;-72
2022/12/06 10:06:48;;;;;;;81.35;27.17;;;3.70;93.20;;;;;;5036178;28;20057;-72
2022/12/06 10:09:21;;;;;;;89.45;29.15;;;3.70;93.20;;;;;;5030974;28;20018;-72
2022/12/06 10:11:55;;;;;;;73.07;26.00;;;3.70;93.20;;;;;;5034057;28;20025;-72
2022/12/06 10:14:31;;;;;;;73.93;27.15;;;3.60;93.60;;;;;;5034965;28;20055;-70
2022/12/06 10:17:12;;;;;;;77.35;26.50;;;3.70;93.50;;;;;;5031293;28;20062;-71
2022/12/06 10:19:50;;;;;;;80.65;27.70;;;3.70;93.60;;;;;;5032292;28;20092;-71
2022/12/06 10:22:29;;;;;;;69.22;25.23;;;3.70;93.50;;;;;;5026395;28;20029;-71
2022/12/06 10:25:15;;;;;;;76.22;25.38;;;3.70;93.80;;;;;;5027375;28;20033;-70
2022/12/06 10:27:59;;;;;;;75.55;26.02;;;3.70;93.30;;;;;;5029147;28;20114;-70
2022/12/06 10:30:25;;;;;;;72.50;25.50;;;3.60;93.30;;;;;;5029633;28;20029;-69
2022/12/06 10:33:12;;;;;;;79.10;25.05;;;3.60;93.50;;;;;;5033462;28;20033;-72
2022/12/06 10:35:54;;;;;;;73.03;26.67;;;3.60;93.60;;;;;;5031741;28;20567;-71
2022/12/06 10:38:41;;;;;;;81.45;26.00;;;3.60;93.60;;;;;;5028302;28;20048;-72
2022/12/06 10:41:35;;;;;;;77.88;23.70;;;3.60;93.80;;;;;;5028836;28;20025;-70
2022/12/06 10:44:36;;;;;;;74.22;24.88;;;3.60;93.20;;;;;;5030036;28;20397;-72
2022/12/06 10:47:06;;;;;;;65.15;25.77;;;3.60;93.70;;;;;;5028269;28;20038;-69
2022/12/06 10:49:53;;;;;;;66.65;24.30;;;3.60;93.40;;;;;;5029676;28;20436;-69
2022/12/06 10:52:50;;;;;;;64.43;24.40;;;3.70;93.30;;;;;;5030338;28;20068;-70
2022/12/06 10:55:29;;;;;;;75.13;24.27;;;3.70;93.30;;;;;;5032237;28;20505;-70
2022/12/06 10:58:13;;;;;;;70.32;26.35;;;3.70;93.30;;;;;;5029331;28;20501;-70
2022/12/06 11:01:03;;;;;;;65.57;24.17;;;3.80;92.90;;;;;;5029435;28;20032;-72
2022/12/06 11:03:32;;;;;;;72.03;26.35;;;3.80;93.10;;;;;;5035108;28;20040;-70
2022/12/06 11:06:04;;;;;;;70.13;25.10;;;3.80;93.00;;;;;;5038106;28;20466;-73
2022/12/06 11:08:35;;;;;;;66.03;24.65;;;3.80;93.00;;;;;;5031111;28;20537;-72
2022/12/06 11:11:04;;;;;;;74.45;27.05;;;3.80;93.00;;;;;;5031526;28;20033;-72
2022/12/06 11:13:42;;;;;;;64.13;26.08;;;3.90;93.20;;;;;;5037116;28;20029;-73
2022/12/06 11:16:22;;;;;;;80.10;27.35;;;3.90;93.00;;;;;;5033263;28;20041;-72
2022/12/06 11:18:48;;;;;;;80.80;27.73;;;3.90;93.10;;;;;;5038617;28;20505;-70
2022/12/06 11:21:32;;;;;;;62.47;27.02;;;3.80;93.20;;;;;;5033856;28;20021;-69
2022/12/06 11:24:12;;;;;;;63.22;26.30;;;3.90;93.20;;;;;;5034420;28;20030;-71
2022/12/06 11:26:46;;;;;;;73.10;26.33;;;3.90;93.10;;;;;;5041298;28;20508;-69
2022/12/06 11:29:14;;;;;;;71.50;26.02;;;3.80;93.20;;;;;;5038276;28;20108;-70
2022/12/06 11:31:52;;;;;;;58.88;22.88;;;3.90;92.80;;;;;;5032421;28;20033;-70
2022/12/06 11:34:40;;;;;;;65.57;24.52;;;3.90;92.80;;;;;;5032712;28;20091;-71
2022/12/06 11:37:08;;;;;;;70.95;25.98;;;4.00;92.60;;;;;;5031822;28;20026;-71
2022/12/06 11:39:34;;;;;;;70.00;26.45;;;4.00;92.50;;;;;;5036714;28;20087;-71
2022/12/06 11:42:03;;;;;;;70.70;27.83;;;4.10;92.40;;;;;;5033826;28;20505;-72
2022/12/06 11:45:06;;;;;;;68.75;27.10;;;4.10;92.50;;;;;;5032825;28;20017;-71
2022/12/06 11:47:31;;;;;;;76.53;29.60;;;4.10;92.30;;;;;;5029928;28;20053;-69
2022/12/06 11:49:57;;;;;;;78.75;29.70;;;4.00;92.80;;;;;;5034459;28;20037;-71
2022/12/06 11:52:36;;;;;;;77.80;31.73;;;4.00;92.40;;;;;;5039679;28;20033;-71
2022/12/06 11:55:12;;;;;;;79.35;31.58;;;4.00;92.50;;;;;;5034404;28;20037;-71
2022/12/06 11:57:46;;;;;;;79.10;30.00;;;4.00;92.50;;;;;;5037890;28;20033;-70
2022/12/06 12:00:15;;;;;;;79.55;29.80;;;4.10;92.50;;;;;;5038473;28;20400;-71
2022/12/06 12:02:43;;;;;;;86.07;31.77;;;4.10;92.40;;;;;;5037854;28;20034;-71
2022/12/06 12:05:19;;;;;;;82.32;31.10;;;4.00;92.30;;;;;;5033060;28;20112;-71
2022/12/06 12:07:49;;;;;;;81.15;33.30;;;4.10;92.50;;;;;;5033961;28;20032;-71
2022/12/06 12:10:38;;;;;;;81.53;32.28;;;4.10;92.40;;;;;;5039978;28;20029;-71
2022/12/06 12:15:55;;;;;;;74.32;30.80;;;4.20;92.20;;;;;;5039140;28;20408;-71
2022/12/06 12:18:28;;;;;;;71.53;29.58;;;4.20;92.30;;;;;;5039882;28;20040;-71
2022/12/06 12:20:56;;;;;;;81.47;30.02;;;4.10;92.30;;;;;;5033649;28;20452;-71
2022/12/06 12:23:28;;;;;;;61.63;28.17;;;4.20;92.40;;;;;;5036093;28;20021;-71
2022/12/06 12:26:17;;;;;;;80.07;31.13;;;4.00;92.10;;;;;;5034739;28;20061;-70
2022/12/06 12:29:07;;;;;;;73.43;30.00;;;4.10;92.40;;;;;;5041675;28;20075;-69
2022/12/06 12:31:50;;;;;;;75.32;30.17;;;4.20;92.40;;;;;;5033817;28;20037;-70
2022/12/06 12:34:25;;;;;;;75.22;30.50;;;4.20;92.30;;;;;;5029979;28;20103;-70
2022/12/06 12:36:58;;;;;;;65.88;29.35;;;4.20;92.40;;;;;;5032919;28;20032;-70
2022/12/06 12:39:36;;;;;;;70.32;29.33;;;4.00;92.30;;;;;;5029605;28;20026;-69
2022/12/06 12:42:02;;;;;;;69.55;30.08;;;4.00;92.40;;;;;;5028438;28;20446;-69
2022/12/06 12:44:32;;;;;;;;;;;4.10;92.10;;;;;;5029316;28;20396;-69
2022/12/06 12:47:18;;;;;;;63.03;28.55;;;4.00;92.20;;;;;;5029609;28;20515;-69
2022/12/06 12:50:00;;;;;;;57.53;28.13;;;4.00;92.30;;;;;;5033820;28;20021;-69
2022/12/06 12:52:38;;;;;;;61.90;28.70;;;4.10;92.20;;;;;;5030826;28;20052;-70
2022/12/06 12:55:22;;;;;;;71.25;29.23;;;4.10;92.10;;;;;;5032443;28;20021;-71
2022/12/06 12:57:54;;;;;;;65.88;27.63;;;4.10;92.20;;;;;;5028514;28;20025;-69
2022/12/06 13:00:23;;;;;;;70.30;28.00;;;3.80;92.60;;;;;;5030792;28;20049;-70
2022/12/06 13:03:00;;;;;;;63.97;26.23;;;3.90;92.60;;;;;;5032513;28;20017;-69
2022/12/06 13:05:35;;;;;;;67.05;28.63;;;4.00;92.40;;;;;;5034281;28;20036;-70
2022/12/06 13:08:11;;;;;;;73.90;28.15;;;3.90;92.20;;;;;;5032663;28;20037;-69
2022/12/06 13:10:42;;;;;;;70.63;27.83;;;3.80;92.60;;;;;;5031935;28;20066;-70
2022/12/06 13:13:18;;;;;;;66.20;27.83;;;3.90;92.40;;;;;;5030987;28;20513;-71
2022/12/06 13:15:53;;;;;;;64.47;26.05;;;3.90;92.10;;;;;;5032256;28;20538;-70
2022/12/06 13:18:39;;;;;;;56.72;25.10;;;4.00;92.10;;;;;;5030703;28;20503;-72
2022/12/06 13:21:16;;;;;;;55.08;25.88;;;4.00;92.20;;;;;;5028998;28;20088;-72
2022/12/06 13:23:42;;;;;;;57.65;26.48;;;4.10;92.20;;;;;;5030053;28;20064;-72
2022/12/06 13:26:20;;;;;;;54.65;23.70;;;4.10;92.60;;;;;;5035087;28;20080;-72